createdAt,value
2022-11-28T00:00:09.263Z,52.30
2022-11-28T00:00:44.218Z,52.00
2022-11-28T00:01:49.591Z,53.80
2022-11-28T00:02:21.577Z,51.10
2022-11-28T00:02:53.665Z,53.30
2022-11-28T00:03:25.684Z,50.70
2022-11-28T00:03:57.958Z,52.40
2022-11-28T00:04:30.056Z,51.00
2022-11-28T00:05:02.221Z,50.20
2022-11-28T00:05:36.795Z,55.20
2022-11-28T00:06:08.841Z,51.10
2022-11-28T00:06:45.444Z,52.20
2022-11-28T00:07:17.611Z,53.20
2022-11-28T00:07:49.740Z,50.50
2022-11-28T00:08:21.513Z,54.90
2022-11-28T00:08:53.664Z,50.20
2022-11-28T00:09:25.301Z,52.40
2022-11-28T00:09:57.086Z,51.60
2022-11-28T00:10:28.784Z,51.80
2022-11-28T00:11:04.298Z,50.30
2022-11-28T00:11:36.094Z,52.30
2022-11-28T00:12:07.979Z,46.20
2022-11-28T00:12:39.708Z,46.70
2022-11-28T00:13:11.501Z,49.50
2022-11-28T00:13:43.586Z,49.80
2022-11-28T00:14:16.346Z,47.30
2022-11-28T00:14:48.197Z,50.50
2022-11-28T00:15:20.149Z,48.50
2022-11-28T00:16:12.690Z,46.50
2022-11-28T00:16:44.787Z,50.70
2022-11-28T00:17:16.486Z,49.90
2022-11-28T00:17:48.181Z,47.20
2022-11-28T00:18:19.870Z,49.70
2022-11-28T00:18:52.450Z,52.10
2022-11-28T00:19:24.239Z,51.20
2022-11-28T00:19:56.004Z,54.30
2022-11-28T00:20:27.977Z,53.20
2022-11-28T00:21:00.677Z,52.20
2022-11-28T00:21:32.679Z,53.00
2022-11-28T00:22:04.579Z,54.60
2022-11-28T00:22:36.308Z,50.90
2022-11-28T00:23:08.138Z,49.30
2022-11-28T00:23:40.753Z,49.10
2022-11-28T00:24:12.493Z,56.10
2022-11-28T00:24:44.649Z,52.60
2022-11-28T00:25:16.527Z,51.40
2022-11-28T00:25:55.903Z,48.90
2022-11-28T00:26:35.341Z,50.70
2022-11-28T00:27:07.229Z,47.10
2022-11-28T00:27:38.961Z,50.10
2022-11-28T00:28:10.653Z,52.80
2022-11-28T00:28:42.390Z,47.10
2022-11-28T00:29:14.223Z,48.40
2022-11-28T00:29:46.070Z,57.00
2022-11-28T00:30:17.839Z,51.50
2022-11-28T00:30:49.489Z,49.70
2022-11-28T00:31:23.328Z,52.10
2022-11-28T00:31:55.314Z,52.30
2022-11-28T00:32:27.389Z,48.80
2022-11-28T00:32:59.260Z,50.20
2022-11-28T00:33:31.917Z,47.40
2022-11-28T00:34:03.791Z,51.90
2022-11-28T00:34:35.794Z,51.20
2022-11-28T00:35:07.660Z,50.20
2022-11-28T00:35:39.442Z,53.90
2022-11-28T00:36:11.566Z,55.50
2022-11-28T00:36:44.344Z,49.10
2022-11-28T00:37:15.897Z,45.40
2022-11-28T00:37:47.467Z,51.00
2022-11-28T00:38:19.275Z,48.20
2022-11-28T00:38:51.380Z,52.70
2022-11-28T00:39:23.228Z,50.30
2022-11-28T00:39:55.150Z,52.20
2022-11-28T00:40:27.109Z,50.70
2022-11-28T00:41:00.331Z,51.00
2022-11-28T00:41:35.468Z,54.10
2022-11-28T00:42:07.137Z,55.40
2022-11-28T00:42:38.929Z,48.40
2022-11-28T00:43:12.500Z,51.30
2022-11-28T00:43:44.957Z,49.90
2022-11-28T00:44:16.683Z,48.10
2022-11-28T00:44:49.250Z,47.60
2022-11-28T00:45:21.829Z,47.70
2022-11-28T00:45:53.634Z,47.70
2022-11-28T00:46:25.991Z,44.80
2022-11-28T00:46:57.698Z,47.30
2022-11-28T00:47:29.347Z,43.60
2022-11-28T00:48:01.093Z,46.00
2022-11-28T00:48:33.598Z,49.20
2022-11-28T00:49:05.671Z,44.30
2022-11-28T00:49:37.513Z,42.40
2022-11-28T00:50:09.481Z,44.90
2022-11-28T00:50:41.223Z,41.40
2022-11-28T00:51:14.133Z,39.40
2022-11-28T00:51:46.224Z,44.40
2022-11-28T00:52:17.972Z,46.10
2022-11-28T00:52:50.083Z,44.00
2022-11-28T00:53:21.841Z,41.20
2022-11-28T00:53:54.593Z,41.20
2022-11-28T00:54:26.303Z,40.60
2022-11-28T00:54:58.133Z,43.20
2022-11-28T00:55:29.886Z,42.00
2022-11-28T00:56:04.194Z,44.00
2022-11-28T00:56:37.501Z,40.50
2022-11-28T00:57:09.190Z,40.90
2022-11-28T00:57:40.923Z,39.70
2022-11-28T00:58:12.736Z,40.00
2022-11-28T00:58:44.653Z,37.30
2022-11-28T00:59:16.472Z,40.30
2022-11-28T00:59:48.246Z,38.30
2022-11-28T01:00:20.351Z,40.80
2022-11-28T01:00:52.086Z,37.10
2022-11-28T01:01:28.625Z,37.00
2022-11-28T01:02:00.440Z,38.90
2022-11-28T01:02:32.404Z,36.30
2022-11-28T01:03:04.668Z,35.90
2022-11-28T01:03:36.559Z,39.30
2022-11-28T01:04:09.376Z,36.00
2022-11-28T01:04:41.420Z,38.70
2022-11-28T01:05:13.295Z,38.00
2022-11-28T01:05:45.087Z,38.20
2022-11-28T01:06:21.433Z,39.10
2022-11-28T01:06:55.467Z,42.30
2022-11-28T01:07:30.292Z,40.60
2022-11-28T01:08:02.085Z,41.60
2022-11-28T01:08:33.927Z,35.60
2022-11-28T01:09:16.481Z,40.20
2022-11-28T01:09:48.184Z,37.90
2022-11-28T01:10:20.807Z,36.90
2022-11-28T01:10:52.495Z,36.00
2022-11-28T01:11:24.550Z,38.00
2022-11-28T01:11:56.279Z,38.40
2022-11-28T01:12:28.057Z,37.80
2022-11-28T01:12:59.705Z,39.70
2022-11-28T01:13:31.477Z,39.40
2022-11-28T01:14:03.378Z,37.80
2022-11-28T01:14:35.107Z,38.00
2022-11-28T01:15:08.747Z,36.00
2022-11-28T01:15:41.522Z,38.90
2022-11-28T01:16:13.311Z,37.10
2022-11-28T01:16:45.314Z,39.10
2022-11-28T01:17:17.040Z,37.00
2022-11-28T01:17:48.778Z,38.40
2022-11-28T01:18:20.590Z,40.20
2022-11-28T01:18:52.390Z,37.20
2022-11-28T01:19:24.454Z,40.50
2022-11-28T01:19:56.186Z,39.20
2022-11-28T01:20:28.215Z,41.00
2022-11-28T01:20:59.882Z,37.20
2022-11-28T01:21:31.826Z,37.40
2022-11-28T01:22:05.899Z,37.30
2022-11-28T01:22:37.811Z,37.90
2022-11-28T01:23:09.715Z,36.50
2022-11-28T01:23:41.484Z,38.80
2022-11-28T01:24:14.878Z,38.10
2022-11-28T01:24:46.661Z,35.60
2022-11-28T01:25:18.497Z,34.60
2022-11-28T01:25:50.144Z,34.10
2022-11-28T01:26:23.200Z,33.80
2022-11-28T01:26:54.877Z,35.50
2022-11-28T01:27:26.570Z,34.60
2022-11-28T01:27:58.331Z,34.90
2022-11-28T01:28:30.076Z,38.70
2022-11-28T01:29:01.855Z,36.00
2022-11-28T01:29:33.576Z,35.40
2022-11-28T01:30:05.648Z,36.00
2022-11-28T01:30:37.462Z,34.40
2022-11-28T01:31:09.858Z,34.10
2022-11-28T01:31:41.956Z,38.40
2022-11-28T01:32:13.689Z,33.20
2022-11-28T01:32:45.406Z,37.00
2022-11-28T01:33:17.341Z,36.20
2022-11-28T01:33:49.524Z,34.30
2022-11-28T01:34:21.248Z,34.30
2022-11-28T01:34:53.107Z,38.70
2022-11-28T01:35:24.858Z,40.00
2022-11-28T01:35:57.204Z,36.50
2022-11-28T01:36:28.967Z,35.10
2022-11-28T01:37:00.729Z,36.50
2022-11-28T01:37:32.409Z,33.60
2022-11-28T01:38:04.151Z,33.50
2022-11-28T01:38:35.929Z,34.30
2022-11-28T01:39:07.698Z,32.60
2022-11-28T01:39:39.779Z,33.70
2022-11-28T01:40:12.409Z,33.20
2022-11-28T01:40:45.272Z,33.00
2022-11-28T01:41:18.486Z,35.60
2022-11-28T01:41:50.146Z,33.50
2022-11-28T01:42:21.927Z,35.90
2022-11-28T01:42:53.854Z,33.10
2022-11-28T01:43:25.663Z,38.90
2022-11-28T01:44:05.571Z,35.00
2022-11-28T01:44:40.612Z,34.30
2022-11-28T01:45:21.193Z,34.70
2022-11-28T01:45:53.741Z,31.20
2022-11-28T01:46:25.856Z,32.00
2022-11-28T01:46:57.912Z,34.80
2022-11-28T01:47:30.187Z,33.90
2022-11-28T01:48:03.103Z,34.40
2022-11-28T01:48:39.467Z,31.10
2022-11-28T01:49:20.762Z,33.10
2022-11-28T01:49:54.043Z,35.00
2022-11-28T01:50:26.775Z,31.00
2022-11-28T01:51:00.654Z,36.50
2022-11-28T01:51:32.868Z,34.70
2022-11-28T01:52:06.450Z,35.60
2022-11-28T01:52:39.824Z,32.60
2022-11-28T01:53:12.230Z,38.50
2022-11-28T01:53:45.205Z,32.10
2022-11-28T01:54:18.406Z,37.50
2022-11-28T01:54:52.956Z,36.30
2022-11-28T01:55:26.148Z,34.50
2022-11-28T01:56:00.544Z,35.50
2022-11-28T01:56:37.965Z,35.20
2022-11-28T01:57:13.338Z,34.40
2022-11-28T01:57:45.164Z,33.70
2022-11-28T01:58:16.956Z,35.30
2022-11-28T01:58:51.660Z,35.10
2022-11-28T01:59:26.291Z,33.30
2022-11-28T02:00:00.821Z,32.60
2022-11-28T02:00:34.200Z,31.50
2022-11-28T02:01:06.350Z,31.10
2022-11-28T02:01:38.791Z,32.20
2022-11-28T02:02:14.750Z,32.50
2022-11-28T02:02:51.807Z,35.80
2022-11-28T02:03:33.195Z,35.70
2022-11-28T02:04:05.123Z,30.10
2022-11-28T02:04:37.135Z,34.10
2022-11-28T02:05:09.534Z,35.70
2022-11-28T02:05:41.406Z,34.20
2022-11-28T02:06:14.847Z,34.60
2022-11-28T02:06:46.710Z,33.70
2022-11-28T02:07:19.198Z,34.70
2022-11-28T02:07:51.267Z,31.80
2022-11-28T02:08:25.025Z,33.80
2022-11-28T02:08:56.847Z,36.20
2022-11-28T02:09:28.552Z,35.30
2022-11-28T02:10:01.352Z,34.60
2022-11-28T02:10:52.157Z,34.60
2022-11-28T02:11:26.857Z,33.70
2022-11-28T02:12:01.305Z,35.10
2022-11-28T02:12:38.699Z,35.50
2022-11-28T02:13:21.176Z,35.00
2022-11-28T02:14:02.095Z,32.30
2022-11-28T02:14:42.990Z,34.90
2022-11-28T02:15:23.256Z,35.10
2022-11-28T02:16:00.894Z,32.80
2022-11-28T02:16:39.310Z,34.80
2022-11-28T02:17:10.994Z,32.50
2022-11-28T02:17:51.551Z,36.30
2022-11-28T02:18:30.861Z,34.00
2022-11-28T02:19:02.685Z,34.00
2022-11-28T02:19:52.659Z,36.70
2022-11-28T02:20:24.284Z,33.70
2022-11-28T02:20:56.069Z,36.30
2022-11-28T02:21:35.574Z,34.20
2022-11-28T02:22:22.354Z,33.80
2022-11-28T02:23:09.597Z,34.30
2022-11-28T02:23:59.778Z,34.90
2022-11-28T02:24:31.355Z,33.20
2022-11-28T02:25:12.239Z,36.00
2022-11-28T02:25:43.997Z,30.60
2022-11-28T02:26:18.602Z,35.90
2022-11-28T02:26:53.131Z,32.40
2022-11-28T02:27:43.559Z,36.50
2022-11-28T02:28:29.355Z,35.50
2022-11-28T02:29:15.870Z,31.60
2022-11-28T02:30:06.349Z,31.20
2022-11-28T02:30:49.988Z,34.60
2022-11-28T02:31:45.033Z,32.20
2022-11-28T02:32:16.696Z,32.50
2022-11-28T02:32:48.406Z,34.10
2022-11-28T02:33:58.887Z,35.00
2022-11-28T02:34:37.784Z,30.20
2022-11-28T02:35:09.571Z,31.80
2022-11-28T02:35:46.939Z,37.00
2022-11-28T02:36:30.774Z,33.40
2022-11-28T02:37:12.798Z,32.40
2022-11-28T02:37:49.447Z,33.90
2022-11-28T02:38:36.133Z,32.30
2022-11-28T02:39:08.028Z,33.70
2022-11-28T02:39:54.962Z,34.40
2022-11-28T02:40:45.478Z,34.60
2022-11-28T02:41:17.338Z,35.30
2022-11-28T02:41:52.157Z,34.80
2022-11-28T02:42:30.714Z,33.10
2022-11-28T02:43:13.777Z,34.80
2022-11-28T02:43:48.491Z,34.50
2022-11-28T02:44:25.343Z,30.60
2022-11-28T02:44:57.074Z,31.50
2022-11-28T02:45:33.553Z,34.90
2022-11-28T02:46:25.240Z,31.70
2022-11-28T02:47:06.224Z,33.50
2022-11-28T02:47:43.796Z,35.40
2022-11-28T02:48:21.688Z,31.80
2022-11-28T02:48:56.056Z,30.70
2022-11-28T02:49:46.326Z,34.40
2022-11-28T02:50:24.322Z,29.20
2022-11-28T02:51:07.046Z,32.40
2022-11-28T02:51:47.814Z,30.30
2022-11-28T02:52:58.526Z,30.60
2022-11-28T02:53:31.485Z,31.60
2022-11-28T02:54:05.115Z,31.10
2022-11-28T02:54:37.939Z,31.80
2022-11-28T02:55:10.994Z,34.00
2022-11-28T02:55:43.151Z,31.70
2022-11-28T02:56:14.891Z,35.40
2022-11-28T02:56:48.096Z,30.30
2022-11-28T02:57:19.961Z,33.10
2022-11-28T02:57:52.984Z,34.30
2022-11-28T02:58:24.829Z,34.20
2022-11-28T02:58:56.513Z,32.40
2022-11-28T02:59:30.976Z,33.40
2022-11-28T03:00:02.938Z,32.70
2022-11-28T03:00:36.324Z,32.40
2022-11-28T03:01:15.090Z,33.50
2022-11-28T03:01:46.918Z,28.20
2022-11-28T03:02:22.403Z,32.90
2022-11-28T03:02:57.285Z,32.10
2022-11-28T03:03:28.966Z,29.80
2022-11-28T03:04:09.004Z,29.30
2022-11-28T03:05:04.153Z,32.10
2022-11-28T03:05:46.103Z,31.00
2022-11-28T03:06:17.964Z,31.10
2022-11-28T03:07:04.230Z,31.40
2022-11-28T03:07:46.177Z,28.80
2022-11-28T03:08:17.937Z,28.40
2022-11-28T03:08:52.347Z,33.90
2022-11-28T03:09:44.171Z,30.00
2022-11-28T03:10:27.794Z,30.20
2022-11-28T03:11:06.097Z,30.40
2022-11-28T03:11:37.851Z,31.90
2022-11-28T03:12:28.123Z,30.60
2022-11-28T03:13:10.229Z,30.30
2022-11-28T03:13:44.701Z,28.80
2022-11-28T03:14:29.249Z,28.80
2022-11-28T03:15:02.363Z,28.60
2022-11-28T03:15:47.373Z,30.70
2022-11-28T03:16:42.296Z,28.50
2022-11-28T03:17:26.157Z,28.70
2022-11-28T03:18:10.294Z,27.90
2022-11-28T03:18:50.489Z,26.20
2022-11-28T03:19:34.112Z,28.70
2022-11-28T03:20:24.778Z,23.30
2022-11-28T03:20:59.715Z,28.40
2022-11-28T03:21:44.474Z,25.60
2022-11-28T03:22:26.422Z,29.20
2022-11-28T03:22:58.403Z,25.10
2022-11-28T03:23:34.811Z,26.40
2022-11-28T03:24:12.191Z,26.70
2022-11-28T03:24:50.270Z,28.90
2022-11-28T03:25:25.206Z,26.70
2022-11-28T03:25:58.627Z,26.40
2022-11-28T03:26:36.664Z,24.90
2022-11-28T03:27:14.388Z,24.00
2022-11-28T03:27:48.821Z,26.70
2022-11-28T03:28:29.878Z,25.80
2022-11-28T03:29:06.877Z,24.20
2022-11-28T03:29:44.150Z,23.50
2022-11-28T03:30:25.143Z,22.30
2022-11-28T03:31:00.147Z,21.00
2022-11-28T03:31:44.842Z,19.40
2022-11-28T03:32:19.546Z,21.80
2022-11-28T03:32:52.910Z,21.40
2022-11-28T03:33:27.565Z,19.70
2022-11-28T03:34:00.072Z,20.50
2022-11-28T03:34:34.506Z,20.10
2022-11-28T03:35:09.525Z,21.20
2022-11-28T03:35:45.143Z,22.50
2022-11-28T03:36:19.339Z,23.30
2022-11-28T03:36:57.888Z,21.00
2022-11-28T03:37:32.292Z,19.90
2022-11-28T03:38:06.640Z,21.20
2022-11-28T03:38:40.168Z,21.50
2022-11-28T03:39:13.578Z,19.80
2022-11-28T03:39:49.255Z,19.40
2022-11-28T03:40:26.652Z,21.70
2022-11-28T03:40:59.589Z,23.00
2022-11-28T03:41:36.325Z,18.10
2022-11-28T03:42:14.114Z,19.10
2022-11-28T03:42:50.941Z,18.70
2022-11-28T03:43:26.519Z,19.20
2022-11-28T03:43:59.636Z,17.70
2022-11-28T03:44:33.017Z,19.50
2022-11-28T03:45:07.661Z,19.70
2022-11-28T03:45:41.184Z,18.80
2022-11-28T03:46:15.118Z,19.90
2022-11-28T03:46:48.240Z,18.70
2022-11-28T03:47:21.668Z,16.60
2022-11-28T03:48:06.207Z,18.60
2022-11-28T03:48:42.726Z,20.30
2022-11-28T03:49:18.331Z,19.60
2022-11-28T03:49:51.181Z,19.40
2022-11-28T03:50:34.802Z,17.90
2022-11-28T03:51:13.464Z,19.10
2022-11-28T03:52:01.332Z,20.10
2022-11-28T03:52:35.542Z,18.90
2022-11-28T03:53:09.685Z,16.30
2022-11-28T03:53:47.450Z,19.60
2022-11-28T03:54:32.254Z,18.40
2022-11-28T03:55:10.682Z,18.30
2022-11-28T03:55:49.296Z,17.00
2022-11-28T03:56:43.270Z,17.30
2022-11-28T03:57:19.374Z,16.90
2022-11-28T03:57:55.879Z,17.70
2022-11-28T03:58:33.551Z,17.40
2022-11-28T03:59:10.698Z,15.90
2022-11-28T03:59:52.413Z,16.80
2022-11-28T04:00:24.749Z,19.60
2022-11-28T04:00:56.437Z,18.20
2022-11-28T04:01:31.666Z,18.60
2022-11-28T04:02:06.385Z,18.80
2022-11-28T04:03:02.437Z,18.10
2022-11-28T04:03:52.681Z,20.90
2022-11-28T04:04:33.528Z,17.30
2022-11-28T04:05:23.291Z,18.90
2022-11-28T04:06:07.064Z,19.30
2022-11-28T04:06:59.002Z,20.60
2022-11-28T04:07:39.559Z,21.00
2022-11-28T04:08:13.905Z,17.90
2022-11-28T04:08:52.045Z,17.90
2022-11-28T04:09:36.271Z,17.40
2022-11-28T04:10:31.354Z,16.90
2022-11-28T04:11:29.503Z,19.40
2022-11-28T04:12:07.133Z,16.30
2022-11-28T04:12:56.825Z,16.00
2022-11-28T04:13:33.677Z,18.30
2022-11-28T04:14:31.763Z,17.80
2022-11-28T04:15:07.008Z,18.70
2022-11-28T04:15:38.693Z,16.20
2022-11-28T04:16:33.462Z,19.00
2022-11-28T04:17:05.007Z,14.00
2022-11-28T04:17:39.267Z,17.10
2022-11-28T04:18:13.989Z,17.80
2022-11-28T04:19:00.704Z,18.50
2022-11-28T04:19:37.525Z,15.80
2022-11-28T04:20:14.466Z,15.90
2022-11-28T04:21:06.409Z,15.90
2022-11-28T04:21:40.808Z,15.20
2022-11-28T04:22:12.613Z,16.30
2022-11-28T04:22:47.064Z,16.40
2022-11-28T04:23:19.826Z,15.00
2022-11-28T04:23:54.666Z,19.60
2022-11-28T04:24:37.002Z,19.10
2022-11-28T04:25:11.326Z,16.10
2022-11-28T04:25:46.090Z,14.90
2022-11-28T04:26:26.581Z,18.10
2022-11-28T04:27:00.399Z,19.00
2022-11-28T04:27:37.380Z,15.80
2022-11-28T04:28:12.712Z,14.80
2022-11-28T04:28:45.778Z,15.40
2022-11-28T04:29:20.279Z,16.50
2022-11-28T04:29:57.482Z,17.50
2022-11-28T04:30:29.304Z,17.90
2022-11-28T04:31:02.336Z,16.70
2022-11-28T04:31:35.239Z,16.40
2022-11-28T04:32:08.033Z,17.90
2022-11-28T04:32:44.028Z,15.00
2022-11-28T04:33:17.063Z,14.40
2022-11-28T04:33:51.033Z,19.50
2022-11-28T04:34:24.415Z,16.80
2022-11-28T04:35:02.406Z,13.90
2022-11-28T04:35:36.785Z,14.20
2022-11-28T04:36:09.635Z,15.30
2022-11-28T04:36:43.728Z,15.00
2022-11-28T04:37:16.258Z,15.40
2022-11-28T04:37:49.225Z,15.40
2022-11-28T04:38:23.473Z,16.40
2022-11-28T04:38:56.985Z,14.40
2022-11-28T04:39:30.469Z,17.20
2022-11-28T04:40:02.435Z,14.20
2022-11-28T04:40:37.279Z,16.40
2022-11-28T04:41:14.100Z,14.70
2022-11-28T04:41:57.278Z,14.20
2022-11-28T04:42:35.178Z,14.60
2022-11-28T04:43:13.366Z,14.60
2022-11-28T04:43:50.423Z,15.20
2022-11-28T04:44:36.238Z,14.00
2022-11-28T04:45:11.354Z,14.20
2022-11-28T04:45:44.940Z,18.60
2022-11-28T04:46:24.511Z,14.90
2022-11-28T04:46:57.120Z,15.00
2022-11-28T04:47:29.152Z,14.30
2022-11-28T04:48:01.427Z,14.50
2022-11-28T04:48:34.598Z,13.60
2022-11-28T04:49:06.590Z,14.20
2022-11-28T04:49:38.689Z,13.00
2022-11-28T04:50:10.468Z,15.70
2022-11-28T04:50:47.186Z,13.00
2022-11-28T04:51:21.580Z,14.70
2022-11-28T04:51:59.641Z,14.70
2022-11-28T04:52:51.810Z,14.90
2022-11-28T04:53:32.451Z,18.40
2022-11-28T04:54:14.465Z,15.10
2022-11-28T04:55:15.251Z,14.60
2022-11-28T04:55:56.292Z,15.00
2022-11-28T04:56:30.461Z,15.70
2022-11-28T04:57:07.241Z,15.50
2022-11-28T04:57:41.634Z,15.80
2022-11-28T04:58:21.821Z,15.30
2022-11-28T04:58:53.646Z,15.50
2022-11-28T04:59:27.045Z,13.20
2022-11-28T05:00:01.036Z,15.00
2022-11-28T05:00:34.033Z,14.60
2022-11-28T05:01:06.997Z,13.60
2022-11-28T05:01:41.022Z,13.20
2022-11-28T05:02:14.313Z,14.10
2022-11-28T05:02:47.447Z,14.60
2022-11-28T05:03:19.305Z,12.70
2022-11-28T05:03:51.537Z,16.60
2022-11-28T05:04:23.719Z,16.70
2022-11-28T05:04:55.389Z,13.00
2022-11-28T05:05:29.403Z,13.80
2022-11-28T05:06:01.653Z,15.00
2022-11-28T05:06:34.180Z,14.10
2022-11-28T05:07:07.113Z,13.70
2022-11-28T05:07:39.129Z,15.50
2022-11-28T05:08:11.050Z,13.80
2022-11-28T05:08:42.935Z,13.70
2022-11-28T05:09:14.652Z,13.90
2022-11-28T05:09:46.559Z,14.00
2022-11-28T05:10:18.815Z,14.50
2022-11-28T05:10:50.431Z,14.30
2022-11-28T05:11:22.361Z,13.80
2022-11-28T05:11:54.073Z,13.50
2022-11-28T05:12:25.966Z,13.60
2022-11-28T05:12:57.744Z,14.90
2022-11-28T05:13:29.407Z,14.20
2022-11-28T05:14:01.044Z,17.40
2022-11-28T05:14:32.877Z,13.70
2022-11-28T05:15:05.356Z,14.10
2022-11-28T05:15:37.242Z,13.00
2022-11-28T05:16:09.989Z,14.10
2022-11-28T05:16:41.865Z,14.20
2022-11-28T05:17:13.690Z,14.50
2022-11-28T05:17:46.363Z,13.30
2022-11-28T05:18:18.229Z,15.20
2022-11-28T05:18:50.258Z,13.90
2022-11-28T05:19:22.095Z,14.70
2022-11-28T05:19:53.875Z,14.30
2022-11-28T05:20:25.752Z,14.80
2022-11-28T05:21:01.219Z,14.20
2022-11-28T05:21:32.963Z,13.40
2022-11-28T05:22:04.674Z,13.20
2022-11-28T05:22:36.342Z,14.70
2022-11-28T05:23:08.223Z,13.20
2022-11-28T05:23:41.558Z,14.40
2022-11-28T05:24:13.419Z,12.60
2022-11-28T05:24:45.572Z,12.00
2022-11-28T05:25:17.515Z,13.00
2022-11-28T05:25:49.477Z,13.10
2022-11-28T05:26:21.496Z,13.40
2022-11-28T05:26:53.134Z,14.50
2022-11-28T05:27:24.738Z,13.50
2022-11-28T05:27:56.475Z,12.70
2022-11-28T05:28:28.138Z,14.20
2022-11-28T05:28:59.823Z,12.50
2022-11-28T05:29:31.602Z,16.80
2022-11-28T05:30:04.434Z,14.50
2022-11-28T05:30:36.108Z,13.60
2022-11-28T05:31:08.033Z,16.00
2022-11-28T05:31:40.008Z,15.00
2022-11-28T05:32:12.525Z,13.50
2022-11-28T05:32:44.391Z,14.60
2022-11-28T05:33:16.066Z,13.70
2022-11-28T05:33:47.789Z,13.40
2022-11-28T05:34:19.364Z,14.30
2022-11-28T05:34:51.232Z,15.00
2022-11-28T05:35:23.075Z,12.10
2022-11-28T05:35:55.279Z,14.70
2022-11-28T05:36:27.067Z,13.70
2022-11-28T05:36:59.009Z,19.50
2022-11-28T05:37:30.797Z,14.80
2022-11-28T05:38:02.470Z,14.00
2022-11-28T05:38:34.304Z,13.10
2022-11-28T05:39:05.955Z,11.70
2022-11-28T05:39:37.670Z,12.30
2022-11-28T05:40:09.376Z,12.70
2022-11-28T05:40:44.405Z,17.80
2022-11-28T05:41:34.348Z,15.80
2022-11-28T05:42:06.136Z,16.40
2022-11-28T05:42:37.787Z,13.00
2022-11-28T05:43:10.749Z,13.90
2022-11-28T05:43:42.850Z,12.50
2022-11-28T05:44:14.614Z,14.20
2022-11-28T05:44:47.444Z,13.10
2022-11-28T05:45:19.400Z,12.20
2022-11-28T05:45:51.575Z,13.90
2022-11-28T05:46:23.811Z,15.10
2022-11-28T05:46:55.550Z,14.30
2022-11-28T05:47:29.637Z,13.90
2022-11-28T05:48:01.275Z,15.00
2022-11-28T05:48:33.002Z,11.20
2022-11-28T05:49:04.793Z,12.70
2022-11-28T05:49:36.466Z,13.60
2022-11-28T05:50:08.303Z,13.20
2022-11-28T05:50:41.359Z,12.10
2022-11-28T05:51:13.122Z,12.90
2022-11-28T05:51:44.942Z,13.90
2022-11-28T05:52:16.680Z,13.90
2022-11-28T05:52:48.512Z,14.40
2022-11-28T05:53:20.265Z,14.60
2022-11-28T05:53:51.977Z,14.30
2022-11-28T05:54:23.824Z,13.40
2022-11-28T05:54:55.555Z,13.90
2022-11-28T05:55:27.308Z,14.30
2022-11-28T05:55:59.302Z,13.10
2022-11-28T05:56:31.185Z,17.50
2022-11-28T05:57:05.718Z,14.70
2022-11-28T05:57:37.403Z,15.30
2022-11-28T05:58:09.135Z,14.10
2022-11-28T05:58:41.252Z,13.80
2022-11-28T05:59:13.169Z,18.30
2022-11-28T05:59:45.208Z,13.60
2022-11-28T06:00:17.589Z,15.10
2022-11-28T06:00:49.370Z,14.50
2022-11-28T06:01:22.963Z,12.80
2022-11-28T06:01:54.764Z,13.30
2022-11-28T06:02:26.724Z,13.20
2022-11-28T06:03:01.552Z,14.00
2022-11-28T06:03:33.654Z,14.00
2022-11-28T06:04:05.702Z,14.20
2022-11-28T06:04:37.714Z,17.00
2022-11-28T06:05:34.636Z,19.30
2022-11-28T06:06:01.350Z,18.40
2022-11-28T06:06:33.828Z,18.20
2022-11-28T06:07:05.813Z,23.30
2022-11-28T06:07:37.819Z,19.40
2022-11-28T06:08:11.367Z,18.40
2022-11-28T06:08:43.324Z,20.90
2022-11-28T06:09:15.071Z,21.80
2022-11-28T06:09:46.900Z,17.30
2022-11-28T06:10:18.876Z,20.70
2022-11-28T06:10:57.788Z,18.40
2022-11-28T06:11:30.995Z,16.80
2022-11-28T06:12:02.957Z,15.70
2022-11-28T06:12:34.828Z,14.70
2022-11-28T06:13:06.453Z,15.10
2022-11-28T06:13:38.307Z,15.70
2022-11-28T06:14:10.559Z,18.10
2022-11-28T06:14:42.311Z,15.30
2022-11-28T06:15:14.128Z,22.10
2022-11-28T06:15:45.808Z,19.30
2022-11-28T06:16:19.076Z,14.60
2022-11-28T06:16:51.087Z,15.10
2022-11-28T06:17:23.025Z,15.10
2022-11-28T06:17:55.203Z,13.90
2022-11-28T06:18:26.864Z,17.60
2022-11-28T06:19:00.421Z,17.10
2022-11-28T06:19:32.478Z,18.60
2022-11-28T06:20:04.587Z,17.50
2022-11-28T06:20:36.393Z,17.30
2022-11-28T06:21:09.356Z,16.70
2022-11-28T06:21:41.202Z,16.20
2022-11-28T06:22:13.080Z,16.10
2022-11-28T06:22:45.894Z,15.00
2022-11-28T06:23:17.652Z,13.80
2022-11-28T06:23:49.411Z,13.60
2022-11-28T06:24:21.245Z,17.70
2022-11-28T06:24:53.338Z,20.70
2022-11-28T06:25:25.362Z,15.60
2022-11-28T06:25:57.600Z,17.60
2022-11-28T06:26:29.766Z,14.30
2022-11-28T06:27:01.768Z,15.20
2022-11-28T06:27:34.494Z,14.80
2022-11-28T06:28:06.158Z,13.40
2022-11-28T06:28:38.341Z,15.90
2022-11-28T06:29:10.110Z,19.30
2022-11-28T06:29:42.437Z,25.70
2022-11-28T06:30:14.425Z,24.30
2022-11-28T06:30:46.152Z,20.20
2022-11-28T06:31:19.497Z,16.80
2022-11-28T06:31:51.474Z,22.70
2022-11-28T06:32:23.200Z,20.50
2022-11-28T06:32:54.875Z,29.10
2022-11-28T06:33:26.680Z,37.30
2022-11-28T06:33:58.524Z,39.50
2022-11-28T06:34:31.441Z,35.60
2022-11-28T06:35:03.302Z,35.40
2022-11-28T06:35:34.888Z,32.70
2022-11-28T06:36:07.657Z,30.00
2022-11-28T06:36:39.342Z,28.40
2022-11-28T06:37:10.999Z,26.70
2022-11-28T06:37:42.861Z,25.70
2022-11-28T06:38:14.681Z,22.40
2022-11-28T06:38:46.782Z,22.60
2022-11-28T06:39:18.702Z,24.60
2022-11-28T06:39:50.868Z,24.20
2022-11-28T06:40:22.667Z,24.40
2022-11-28T06:40:58.348Z,25.30
2022-11-28T06:41:30.139Z,22.70
2022-11-28T06:42:02.050Z,21.20
2022-11-28T06:42:37.014Z,22.50
2022-11-28T06:43:08.772Z,20.20
2022-11-28T06:43:41.395Z,19.40
2022-11-28T06:44:14.212Z,20.30
2022-11-28T06:44:46.036Z,19.40
2022-11-28T06:45:17.832Z,20.50
2022-11-28T06:45:49.664Z,20.60
2022-11-28T06:46:21.699Z,21.40
2022-11-28T06:46:54.628Z,18.10
2022-11-28T06:47:26.303Z,20.30
2022-11-28T06:47:58.042Z,16.60
2022-11-28T06:48:29.816Z,18.10
2022-11-28T06:49:01.518Z,20.40
2022-11-28T06:49:33.280Z,18.60
2022-11-28T06:50:05.364Z,16.90
2022-11-28T06:50:37.045Z,17.40
2022-11-28T06:51:09.025Z,20.70
2022-11-28T06:51:41.423Z,16.90
2022-11-28T06:52:13.546Z,14.70
2022-11-28T06:52:45.753Z,16.40
2022-11-28T06:53:17.527Z,19.40
2022-11-28T06:53:49.370Z,18.80
2022-11-28T06:54:21.081Z,16.90
2022-11-28T06:54:52.857Z,16.40
2022-11-28T06:55:24.682Z,19.30
2022-11-28T06:55:56.629Z,17.30
2022-11-28T06:56:28.351Z,16.80
2022-11-28T06:57:00.093Z,18.40
2022-11-28T06:57:32.427Z,14.70
2022-11-28T06:58:04.241Z,21.20
2022-11-28T06:58:36.432Z,17.80
2022-11-28T06:59:10.762Z,18.00
2022-11-28T06:59:42.851Z,17.00
2022-11-28T07:00:15.327Z,21.00
2022-11-28T07:00:47.290Z,15.10
2022-11-28T07:01:20.608Z,16.60
2022-11-28T07:01:52.905Z,16.60
2022-11-28T07:02:24.942Z,19.20
2022-11-28T07:02:57.731Z,18.30
2022-11-28T07:03:29.628Z,16.50
2022-11-28T07:04:01.794Z,18.90
2022-11-28T07:04:33.693Z,15.60
2022-11-28T07:05:05.744Z,16.10
2022-11-28T07:05:37.709Z,18.50
2022-11-28T07:06:09.944Z,17.30
2022-11-28T07:06:43.309Z,17.10
2022-11-28T07:07:16.611Z,15.90
2022-11-28T07:07:54.298Z,17.20
2022-11-28T07:08:26.401Z,17.80
2022-11-28T07:08:58.762Z,16.10
2022-11-28T07:09:30.439Z,19.20
2022-11-28T07:10:02.941Z,16.60
2022-11-28T07:10:34.787Z,18.00
2022-11-28T07:11:11.734Z,17.90
2022-11-28T07:11:43.512Z,18.30
2022-11-28T07:12:15.321Z,17.50
2022-11-28T07:12:47.049Z,17.30
2022-11-28T07:13:18.974Z,17.00
2022-11-28T07:13:50.974Z,16.20
2022-11-28T07:14:22.666Z,17.70
2022-11-28T07:14:54.363Z,18.50
2022-11-28T07:15:26.355Z,16.90
2022-11-28T07:15:58.189Z,17.40
2022-11-28T07:16:31.014Z,17.50
2022-11-28T07:17:03.099Z,15.50
2022-11-28T07:17:35.518Z,16.60
2022-11-28T07:18:07.304Z,15.90
2022-11-28T07:18:39.187Z,16.00
2022-11-28T07:19:11.789Z,15.90
2022-11-28T07:19:43.778Z,18.40
2022-11-28T07:20:15.893Z,17.60
2022-11-28T07:20:47.779Z,17.20
2022-11-28T07:21:20.324Z,17.50
2022-11-28T07:21:52.038Z,17.70
2022-11-28T07:22:24.195Z,18.30
2022-11-28T07:22:56.043Z,19.70
2022-11-28T07:23:27.862Z,18.30
2022-11-28T07:23:59.878Z,19.30
2022-11-28T07:24:32.424Z,20.40
2022-11-28T07:25:04.453Z,19.50
2022-11-28T07:25:36.218Z,17.10